sensor_id;sensor_type;location;lat;lon;timestamp;temperature;humidity
19892;DHT22;10108;50.142;8.724;2023-07-31T00:00:36;18.40;99.90
19892;DHT22;10108;50.142;8.724;2023-07-31T00:03:02;18.30;99.90
19892;DHT22;10108;50.142;8.724;2023-07-31T00:05:28;18.20;99.90
19892;DHT22;10108;50.142;8.724;2023-07-31T00:07:54;18.10;99.90
19892;DHT22;10108;50.142;8.724;2023-07-31T00:10:21;18.00;99.90
19892;DHT22;10108;50.142;8.724;2023-07-31T00:12:47;18.00;99.90
19892;DHT22;10108;50.142;8.724;2023-07-31T00:15:14;17.90;99.90
19892;DHT22;10108;50.142;8.724;2023-07-31T00:17:40;17.90;99.90
19892;DHT22;10108;50.142;8.724;2023-07-31T00:20:07;17.80;99.90
19892;DHT22;10108;50.142;8.724;2023-07-31T00:22:34;17.90;99.90
19892;DHT22;10108;50.142;8.724;2023-07-31T00:25:00;17.90;99.90
19892;DHT22;10108;50.142;8.724;2023-07-31T00:27:26;17.90;99.90
19892;DHT22;10108;50.142;8.724;2023-07-31T00:29:52;17.90;99.90
19892;DHT22;10108;50.142;8.724;2023-07-31T00:32:18;18.00;99.90
19892;DHT22;10108;50.142;8.724;2023-07-31T00:34:44;18.00;99.90
19892;DHT22;10108;50.142;8.724;2023-07-31T00:37:10;18.00;99.90
19892;DHT22;10108;50.142;8.724;2023-07-31T00:39:37;18.00;99.90
19892;DHT22;10108;50.142;8.724;2023-07-31T00:42:03;18.00;99.90
19892;DHT22;10108;50.142;8.724;2023-07-31T00:44:29;18.00;99.90
19892;DHT22;10108;50.142;8.724;2023-07-31T00:46:56;18.00;99.90
19892;DHT22;10108;50.142;8.724;2023-07-31T00:49:23;17.90;99.90
19892;DHT22;10108;50.142;8.724;2023-07-31T00:51:49;17.80;99.90
19892;DHT22;10108;50.142;8.724;2023-07-31T00:54:18;17.70;99.90
19892;DHT22;10108;50.142;8.724;2023-07-31T00:56:47;17.60;99.90
19892;DHT22;10108;50.142;8.724;2023-07-31T00:59:14;17.60;99.90
19892;DHT22;10108;50.142;8.724;2023-07-31T01:01:41;17.60;99.90
19892;DHT22;10108;50.142;8.724;2023-07-31T01:04:07;17.60;99.90
19892;DHT22;10108;50.142;8.724;2023-07-31T01:06:40;17.60;99.90
19892;DHT22;10108;50.142;8.724;2023-07-31T01:12:27;17.60;99.90
19892;DHT22;10108;50.142;8.724;2023-07-31T01:15:02;17.70;99.90
19892;DHT22;10108;50.142;8.724;2023-07-31T01:17:28;17.60;99.90
19892;DHT22;10108;50.142;8.724;2023-07-31T01:19:56;17.60;99.90
19892;DHT22;10108;50.142;8.724;2023-07-31T01:27:44;17.70;99.90
19892;DHT22;10108;50.142;8.724;2023-07-31T01:30:18;17.80;99.90
19892;DHT22;10108;50.142;8.724;2023-07-31T01:32:47;17.80;99.90
19892;DHT22;10108;50.142;8.724;2023-07-31T01:35:15;17.90;99.90
19892;DHT22;10108;50.142;8.724;2023-07-31T01:37:41;17.90;99.90
19892;DHT22;10108;50.142;8.724;2023-07-31T01:40:08;18.00;99.90
19892;DHT22;10108;50.142;8.724;2023-07-31T01:42:34;18.10;99.90
19892;DHT22;10108;50.142;8.724;2023-07-31T01:45:01;18.10;99.90
19892;DHT22;10108;50.142;8.724;2023-07-31T01:47:27;18.20;99.90
19892;DHT22;10108;50.142;8.724;2023-07-31T01:49:53;18.30;99.90
19892;DHT22;10108;50.142;8.724;2023-07-31T01:52:19;18.30;99.90
19892;DHT22;10108;50.142;8.724;2023-07-31T01:54:46;18.30;99.90
19892;DHT22;10108;50.142;8.724;2023-07-31T01:57:12;18.40;99.90
19892;DHT22;10108;50.142;8.724;2023-07-31T01:59:38;18.40;99.90
19892;DHT22;10108;50.142;8.724;2023-07-31T02:02:04;18.50;99.90
19892;DHT22;10108;50.142;8.724;2023-07-31T02:04:30;18.50;99.90
19892;DHT22;10108;50.142;8.724;2023-07-31T02:06:57;18.50;99.90
19892;DHT22;10108;50.142;8.724;2023-07-31T02:09:23;18.50;99.90
19892;DHT22;10108;50.142;8.724;2023-07-31T02:11:49;18.50;99.90
19892;DHT22;10108;50.142;8.724;2023-07-31T02:14:15;18.60;99.90
19892;DHT22;10108;50.142;8.724;2023-07-31T02:16:41;18.60;99.90
19892;DHT22;10108;50.142;8.724;2023-07-31T02:19:08;18.60;99.90
19892;DHT22;10108;50.142;8.724;2023-07-31T02:21:34;18.60;99.90
19892;DHT22;10108;50.142;8.724;2023-07-31T02:24:00;18.70;99.90
19892;DHT22;10108;50.142;8.724;2023-07-31T02:26:26;18.70;99.90
19892;DHT22;10108;50.142;8.724;2023-07-31T02:28:53;18.70;99.90
19892;DHT22;10108;50.142;8.724;2023-07-31T02:31:19;18.70;99.90
19892;DHT22;10108;50.142;8.724;2023-07-31T02:33:45;18.80;99.90
19892;DHT22;10108;50.142;8.724;2023-07-31T02:36:11;18.80;99.90
19892;DHT22;10108;50.142;8.724;2023-07-31T02:38:37;18.80;99.90
19892;DHT22;10108;50.142;8.724;2023-07-31T02:41:03;18.80;99.90
19892;DHT22;10108;50.142;8.724;2023-07-31T02:43:29;18.80;99.90
19892;DHT22;10108;50.142;8.724;2023-07-31T02:45:56;18.80;99.90
19892;DHT22;10108;50.142;8.724;2023-07-31T02:48:23;18.80;99.90
19892;DHT22;10108;50.142;8.724;2023-07-31T02:50:50;18.80;99.90
19892;DHT22;10108;50.142;8.724;2023-07-31T02:53:16;18.80;99.90
19892;DHT22;10108;50.142;8.724;2023-07-31T02:55:42;18.80;99.90
19892;DHT22;10108;50.142;8.724;2023-07-31T02:58:08;18.80;99.90
19892;DHT22;10108;50.142;8.724;2023-07-31T03:00:35;18.80;99.90
19892;DHT22;10108;50.142;8.724;2023-07-31T03:03:01;18.80;99.90
19892;DHT22;10108;50.142;8.724;2023-07-31T03:05:27;18.80;99.90
19892;DHT22;10108;50.142;8.724;2023-07-31T03:07:53;18.80;99.90
19892;DHT22;10108;50.142;8.724;2023-07-31T03:10:19;18.80;99.90
19892;DHT22;10108;50.142;8.724;2023-07-31T03:12:49;18.90;99.90
19892;DHT22;10108;50.142;8.724;2023-07-31T03:15:15;18.80;99.90
19892;DHT22;10108;50.142;8.724;2023-07-31T03:17:41;18.80;99.90
19892;DHT22;10108;50.142;8.724;2023-07-31T03:20:07;18.80;99.90
19892;DHT22;10108;50.142;8.724;2023-07-31T03:22:34;18.80;99.90
19892;DHT22;10108;50.142;8.724;2023-07-31T03:25:04;18.80;99.90
19892;DHT22;10108;50.142;8.724;2023-07-31T03:27:30;18.70;99.90
19892;DHT22;10108;50.142;8.724;2023-07-31T03:29:57;18.60;99.90
19892;DHT22;10108;50.142;8.724;2023-07-31T03:32:23;18.50;99.90
19892;DHT22;10108;50.142;8.724;2023-07-31T03:34:49;18.40;99.90
19892;DHT22;10108;50.142;8.724;2023-07-31T03:37:15;18.30;99.90
19892;DHT22;10108;50.142;8.724;2023-07-31T03:39:41;18.30;99.90
19892;DHT22;10108;50.142;8.724;2023-07-31T03:42:08;18.40;99.90
19892;DHT22;10108;50.142;8.724;2023-07-31T03:44:35;18.40;99.90
19892;DHT22;10108;50.142;8.724;2023-07-31T03:47:01;18.50;99.90
19892;DHT22;10108;50.142;8.724;2023-07-31T03:49:27;18.50;99.90
19892;DHT22;10108;50.142;8.724;2023-07-31T03:51:53;18.60;99.90
19892;DHT22;10108;50.142;8.724;2023-07-31T03:54:19;18.60;99.90
19892;DHT22;10108;50.142;8.724;2023-07-31T03:56:46;18.60;99.90
19892;DHT22;10108;50.142;8.724;2023-07-31T03:59:12;18.60;99.90
19892;DHT22;10108;50.142;8.724;2023-07-31T04:01:38;18.60;99.90
19892;DHT22;10108;50.142;8.724;2023-07-31T04:04:04;18.60;99.90
19892;DHT22;10108;50.142;8.724;2023-07-31T04:06:31;18.70;99.90
19892;DHT22;10108;50.142;8.724;2023-07-31T04:08:57;18.70;99.90
19892;DHT22;10108;50.142;8.724;2023-07-31T04:11:23;18.70;99.90
19892;DHT22;10108;50.142;8.724;2023-07-31T04:13:49;18.70;99.90
19892;DHT22;10108;50.142;8.724;2023-07-31T04:16:15;18.70;99.90
19892;DHT22;10108;50.142;8.724;2023-07-31T04:18:41;18.70;99.90
19892;DHT22;10108;50.142;8.724;2023-07-31T04:21:07;18.70;99.90
19892;DHT22;10108;50.142;8.724;2023-07-31T04:23:34;18.70;99.90
19892;DHT22;10108;50.142;8.724;2023-07-31T04:26:00;18.70;99.90
19892;DHT22;10108;50.142;8.724;2023-07-31T04:28:26;18.70;99.90
19892;DHT22;10108;50.142;8.724;2023-07-31T04:30:52;18.70;99.90
19892;DHT22;10108;50.142;8.724;2023-07-31T04:33:19;18.70;99.90
19892;DHT22;10108;50.142;8.724;2023-07-31T04:35:52;18.70;99.90
19892;DHT22;10108;50.142;8.724;2023-07-31T04:38:20;18.70;99.90
19892;DHT22;10108;50.142;8.724;2023-07-31T04:40:46;18.70;99.90
19892;DHT22;10108;50.142;8.724;2023-07-31T04:43:12;18.70;99.90
19892;DHT22;10108;50.142;8.724;2023-07-31T04:45:39;18.70;99.90
19892;DHT22;10108;50.142;8.724;2023-07-31T04:48:05;18.70;99.90
19892;DHT22;10108;50.142;8.724;2023-07-31T04:50:31;18.70;99.90
19892;DHT22;10108;50.142;8.724;2023-07-31T04:52:57;18.70;99.90
19892;DHT22;10108;50.142;8.724;2023-07-31T04:55:24;18.70;99.90
19892;DHT22;10108;50.142;8.724;2023-07-31T04:57:50;18.70;99.90
19892;DHT22;10108;50.142;8.724;2023-07-31T05:00:16;18.70;99.90
19892;DHT22;10108;50.142;8.724;2023-07-31T05:02:42;18.80;99.90
19892;DHT22;10108;50.142;8.724;2023-07-31T05:05:09;18.70;99.90
19892;DHT22;10108;50.142;8.724;2023-07-31T05:07:35;18.80;99.90
19892;DHT22;10108;50.142;8.724;2023-07-31T05:10:01;18.80;99.90
19892;DHT22;10108;50.142;8.724;2023-07-31T05:12:27;18.80;99.90
19892;DHT22;10108;50.142;8.724;2023-07-31T05:14:53;18.80;99.90
19892;DHT22;10108;50.142;8.724;2023-07-31T05:17:19;18.80;99.90
19892;DHT22;10108;50.142;8.724;2023-07-31T05:19:45;18.80;99.90
19892;DHT22;10108;50.142;8.724;2023-07-31T05:22:11;18.80;99.90
19892;DHT22;10108;50.142;8.724;2023-07-31T05:24:37;18.70;99.90
19892;DHT22;10108;50.142;8.724;2023-07-31T05:27:04;18.70;99.90
19892;DHT22;10108;50.142;8.724;2023-07-31T05:29:30;18.60;99.90
19892;DHT22;10108;50.142;8.724;2023-07-31T05:31:56;18.60;99.90
19892;DHT22;10108;50.142;8.724;2023-07-31T05:34:22;18.60;99.90
19892;DHT22;10108;50.142;8.724;2023-07-31T05:36:48;18.60;99.90
19892;DHT22;10108;50.142;8.724;2023-07-31T05:39:14;18.60;99.90
19892;DHT22;10108;50.142;8.724;2023-07-31T05:41:40;18.60;99.90
19892;DHT22;10108;50.142;8.724;2023-07-31T05:44:07;18.50;99.90
19892;DHT22;10108;50.142;8.724;2023-07-31T05:46:33;18.50;99.90
19892;DHT22;10108;50.142;8.724;2023-07-31T05:48:59;18.40;99.90
19892;DHT22;10108;50.142;8.724;2023-07-31T05:51:27;18.40;99.90
19892;DHT22;10108;50.142;8.724;2023-07-31T05:53:53;18.40;99.90
19892;DHT22;10108;50.142;8.724;2023-07-31T05:56:19;18.30;99.90
19892;DHT22;10108;50.142;8.724;2023-07-31T05:58:45;18.20;99.90
19892;DHT22;10108;50.142;8.724;2023-07-31T06:01:12;18.20;99.90
19892;DHT22;10108;50.142;8.724;2023-07-31T06:03:38;18.20;99.90
19892;DHT22;10108;50.142;8.724;2023-07-31T06:06:04;18.20;99.90
19892;DHT22;10108;50.142;8.724;2023-07-31T06:08:30;18.20;99.90
19892;DHT22;10108;50.142;8.724;2023-07-31T06:10:56;18.20;99.90
19892;DHT22;10108;50.142;8.724;2023-07-31T06:13:22;18.30;99.90
19892;DHT22;10108;50.142;8.724;2023-07-31T06:15:48;18.30;99.90
19892;DHT22;10108;50.142;8.724;2023-07-31T06:18:14;18.40;99.90
19892;DHT22;10108;50.142;8.724;2023-07-31T06:20:41;18.40;99.90
19892;DHT22;10108;50.142;8.724;2023-07-31T06:23:07;18.50;99.90
19892;DHT22;10108;50.142;8.724;2023-07-31T06:25:33;18.50;99.90
19892;DHT22;10108;50.142;8.724;2023-07-31T06:27:59;18.60;99.90
19892;DHT22;10108;50.142;8.724;2023-07-31T06:30:25;18.60;99.90
19892;DHT22;10108;50.142;8.724;2023-07-31T06:32:51;18.80;99.90
19892;DHT22;10108;50.142;8.724;2023-07-31T06:35:17;18.80;99.90
19892;DHT22;10108;50.142;8.724;2023-07-31T06:37:44;18.90;99.90
19892;DHT22;10108;50.142;8.724;2023-07-31T06:40:10;18.90;99.90
19892;DHT22;10108;50.142;8.724;2023-07-31T06:42:36;18.90;99.90
19892;DHT22;10108;50.142;8.724;2023-07-31T06:45:03;19.00;99.90
19892;DHT22;10108;50.142;8.724;2023-07-31T06:47:29;19.00;99.90
19892;DHT22;10108;50.142;8.724;2023-07-31T06:49:56;19.10;99.90
19892;DHT22;10108;50.142;8.724;2023-07-31T06:52:22;19.10;99.90
19892;DHT22;10108;50.142;8.724;2023-07-31T06:55:01;19.10;99.90
19892;DHT22;10108;50.142;8.724;2023-07-31T06:57:29;19.10;99.90
19892;DHT22;10108;50.142;8.724;2023-07-31T06:59:55;19.10;99.90
19892;DHT22;10108;50.142;8.724;2023-07-31T07:02:21;19.20;99.90
19892;DHT22;10108;50.142;8.724;2023-07-31T07:04:49;19.20;99.90
19892;DHT22;10108;50.142;8.724;2023-07-31T07:07:15;19.20;99.90
19892;DHT22;10108;50.142;8.724;2023-07-31T07:09:41;19.30;99.90
19892;DHT22;10108;50.142;8.724;2023-07-31T07:12:08;19.30;99.90
19892;DHT22;10108;50.142;8.724;2023-07-31T07:14:34;19.30;99.90
19892;DHT22;10108;50.142;8.724;2023-07-31T07:17:00;19.40;99.90
19892;DHT22;10108;50.142;8.724;2023-07-31T07:19:26;19.30;99.90
19892;DHT22;10108;50.142;8.724;2023-07-31T07:21:52;19.30;99.90
19892;DHT22;10108;50.142;8.724;2023-07-31T07:24:19;19.30;99.90
19892;DHT22;10108;50.142;8.724;2023-07-31T07:26:45;19.30;99.90
19892;DHT22;10108;50.142;8.724;2023-07-31T07:29:11;19.30;99.90
19892;DHT22;10108;50.142;8.724;2023-07-31T07:31:37;19.40;99.90
19892;DHT22;10108;50.142;8.724;2023-07-31T07:34:03;19.40;99.90
19892;DHT22;10108;50.142;8.724;2023-07-31T07:36:29;19.40;99.90
19892;DHT22;10108;50.142;8.724;2023-07-31T07:38:55;19.50;99.90
19892;DHT22;10108;50.142;8.724;2023-07-31T07:41:22;19.50;99.90
19892;DHT22;10108;50.142;8.724;2023-07-31T07:43:48;19.50;99.90
19892;DHT22;10108;50.142;8.724;2023-07-31T07:46:14;19.60;99.90
19892;DHT22;10108;50.142;8.724;2023-07-31T07:48:40;19.60;99.90
19892;DHT22;10108;50.142;8.724;2023-07-31T07:51:06;19.60;99.90
19892;DHT22;10108;50.142;8.724;2023-07-31T07:53:32;19.70;99.90
19892;DHT22;10108;50.142;8.724;2023-07-31T07:55:58;19.70;99.90
19892;DHT22;10108;50.142;8.724;2023-07-31T07:58:24;19.70;99.90
19892;DHT22;10108;50.142;8.724;2023-07-31T08:00:51;19.70;99.90
19892;DHT22;10108;50.142;8.724;2023-07-31T08:03:18;19.70;99.90
19892;DHT22;10108;50.142;8.724;2023-07-31T08:05:44;19.70;99.90
19892;DHT22;10108;50.142;8.724;2023-07-31T08:08:14;19.80;99.90
19892;DHT22;10108;50.142;8.724;2023-07-31T08:10:42;19.80;99.90
19892;DHT22;10108;50.142;8.724;2023-07-31T08:13:11;19.80;99.90
19892;DHT22;10108;50.142;8.724;2023-07-31T08:15:37;19.80;99.90
19892;DHT22;10108;50.142;8.724;2023-07-31T08:18:03;19.80;99.90
19892;DHT22;10108;50.142;8.724;2023-07-31T08:20:29;19.70;99.90
19892;DHT22;10108;50.142;8.724;2023-07-31T08:22:55;19.70;99.90
19892;DHT22;10108;50.142;8.724;2023-07-31T08:25:21;19.70;99.90
19892;DHT22;10108;50.142;8.724;2023-07-31T08:27:48;19.80;99.90
19892;DHT22;10108;50.142;8.724;2023-07-31T08:30:14;19.80;99.90
19892;DHT22;10108;50.142;8.724;2023-07-31T08:32:40;19.80;99.90
19892;DHT22;10108;50.142;8.724;2023-07-31T08:35:06;19.90;99.90
19892;DHT22;10108;50.142;8.724;2023-07-31T08:37:32;19.90;99.90
19892;DHT22;10108;50.142;8.724;2023-07-31T08:39:58;19.90;99.90
19892;DHT22;10108;50.142;8.724;2023-07-31T08:42:24;19.90;99.90
19892;DHT22;10108;50.142;8.724;2023-07-31T08:44:52;19.90;99.90
19892;DHT22;10108;50.142;8.724;2023-07-31T08:47:20;19.90;99.90
19892;DHT22;10108;50.142;8.724;2023-07-31T08:49:47;19.90;99.90
19892;DHT22;10108;50.142;8.724;2023-07-31T08:52:14;20.00;99.90
19892;DHT22;10108;50.142;8.724;2023-07-31T08:54:40;19.90;99.90
19892;DHT22;10108;50.142;8.724;2023-07-31T08:57:07;19.90;99.90
19892;DHT22;10108;50.142;8.724;2023-07-31T08:59:34;20.00;99.90
19892;DHT22;10108;50.142;8.724;2023-07-31T09:02:05;20.10;99.90
19892;DHT22;10108;50.142;8.724;2023-07-31T09:04:34;20.10;99.90
19892;DHT22;10108;50.142;8.724;2023-07-31T09:07:01;20.20;99.90
19892;DHT22;10108;50.142;8.724;2023-07-31T09:09:33;20.20;99.90
19892;DHT22;10108;50.142;8.724;2023-07-31T09:11:59;20.20;99.90
19892;DHT22;10108;50.142;8.724;2023-07-31T09:14:26;20.30;99.90
19892;DHT22;10108;50.142;8.724;2023-07-31T09:16:56;20.40;99.90
19892;DHT22;10108;50.142;8.724;2023-07-31T09:19:34;20.40;99.90
19892;DHT22;10108;50.142;8.724;2023-07-31T09:22:03;20.50;99.90
19892;DHT22;10108;50.142;8.724;2023-07-31T09:24:33;20.50;99.90
19892;DHT22;10108;50.142;8.724;2023-07-31T09:27:00;20.50;99.90
19892;DHT22;10108;50.142;8.724;2023-07-31T09:29:28;20.50;99.90
19892;DHT22;10108;50.142;8.724;2023-07-31T09:31:55;20.50;99.90
19892;DHT22;10108;50.142;8.724;2023-07-31T09:34:30;20.40;99.90
19892;DHT22;10108;50.142;8.724;2023-07-31T09:37:01;20.40;99.90
19892;DHT22;10108;50.142;8.724;2023-07-31T09:39:27;20.30;99.90
19892;DHT22;10108;50.142;8.724;2023-07-31T09:41:56;20.10;99.90
19892;DHT22;10108;50.142;8.724;2023-07-31T09:44:37;20.00;99.90
19892;DHT22;10108;50.142;8.724;2023-07-31T09:47:04;20.00;99.90
19892;DHT22;10108;50.142;8.724;2023-07-31T09:49:30;20.00;99.90
19892;DHT22;10108;50.142;8.724;2023-07-31T09:51:56;20.00;99.90
19892;DHT22;10108;50.142;8.724;2023-07-31T09:54:23;19.90;99.90
19892;DHT22;10108;50.142;8.724;2023-07-31T09:56:49;19.70;99.90
19892;DHT22;10108;50.142;8.724;2023-07-31T09:59:17;19.60;99.90
19892;DHT22;10108;50.142;8.724;2023-07-31T10:01:46;19.50;99.90
19892;DHT22;10108;50.142;8.724;2023-07-31T10:04:13;19.40;99.90
19892;DHT22;10108;50.142;8.724;2023-07-31T10:06:40;19.40;99.90
19892;DHT22;10108;50.142;8.724;2023-07-31T10:09:09;19.50;99.90
19892;DHT22;10108;50.142;8.724;2023-07-31T10:11:41;19.60;99.90
19892;DHT22;10108;50.142;8.724;2023-07-31T10:14:10;19.70;99.90
19892;DHT22;10108;50.142;8.724;2023-07-31T10:16:38;19.90;99.90
19892;DHT22;10108;50.142;8.724;2023-07-31T10:19:05;20.10;99.90
19892;DHT22;10108;50.142;8.724;2023-07-31T10:21:32;20.20;99.90
19892;DHT22;10108;50.142;8.724;2023-07-31T10:24:05;20.30;99.90
19892;DHT22;10108;50.142;8.724;2023-07-31T10:26:32;20.40;99.90
19892;DHT22;10108;50.142;8.724;2023-07-31T10:29:01;20.50;99.90
19892;DHT22;10108;50.142;8.724;2023-07-31T10:31:28;20.60;99.90
19892;DHT22;10108;50.142;8.724;2023-07-31T10:33:56;20.70;99.90
19892;DHT22;10108;50.142;8.724;2023-07-31T10:36:23;20.70;99.90
19892;DHT22;10108;50.142;8.724;2023-07-31T10:38:49;20.70;99.90
19892;DHT22;10108;50.142;8.724;2023-07-31T10:41:16;20.70;99.90
19892;DHT22;10108;50.142;8.724;2023-07-31T10:43:42;20.70;99.90
19892;DHT22;10108;50.142;8.724;2023-07-31T10:46:12;20.70;99.90
19892;DHT22;10108;50.142;8.724;2023-07-31T10:48:40;20.70;99.90
19892;DHT22;10108;50.142;8.724;2023-07-31T10:51:11;20.80;99.90
19892;DHT22;10108;50.142;8.724;2023-07-31T10:53:39;20.80;99.90
19892;DHT22;10108;50.142;8.724;2023-07-31T10:56:10;20.80;99.90
19892;DHT22;10108;50.142;8.724;2023-07-31T10:58:44;20.80;99.90
19892;DHT22;10108;50.142;8.724;2023-07-31T11:01:10;20.80;99.90
19892;DHT22;10108;50.142;8.724;2023-07-31T11:03:47;20.70;99.90
19892;DHT22;10108;50.142;8.724;2023-07-31T11:06:15;20.70;99.90
19892;DHT22;10108;50.142;8.724;2023-07-31T11:08:44;20.70;99.90
19892;DHT22;10108;50.142;8.724;2023-07-31T11:11:12;20.80;99.90
19892;DHT22;10108;50.142;8.724;2023-07-31T11:16:10;20.80;99.90
19892;DHT22;10108;50.142;8.724;2023-07-31T11:18:39;20.80;99.90
19892;DHT22;10108;50.142;8.724;2023-07-31T11:21:07;20.80;99.90
19892;DHT22;10108;50.142;8.724;2023-07-31T11:23:36;20.90;99.90
19892;DHT22;10108;50.142;8.724;2023-07-31T11:26:04;20.80;99.90
19892;DHT22;10108;50.142;8.724;2023-07-31T11:28:34;20.80;99.90
19892;DHT22;10108;50.142;8.724;2023-07-31T11:31:02;20.80;99.90
19892;DHT22;10108;50.142;8.724;2023-07-31T11:33:28;20.70;99.90
19892;DHT22;10108;50.142;8.724;2023-07-31T11:35:54;20.70;99.90
19892;DHT22;10108;50.142;8.724;2023-07-31T11:38:29;20.70;99.90
19892;DHT22;10108;50.142;8.724;2023-07-31T11:40:58;20.70;99.90
19892;DHT22;10108;50.142;8.724;2023-07-31T11:43:25;20.70;99.90
19892;DHT22;10108;50.142;8.724;2023-07-31T11:45:55;20.70;99.90
19892;DHT22;10108;50.142;8.724;2023-07-31T11:48:26;20.80;99.90
19892;DHT22;10108;50.142;8.724;2023-07-31T11:51:03;20.80;99.90
19892;DHT22;10108;50.142;8.724;2023-07-31T11:53:38;20.70;99.90
19892;DHT22;10108;50.142;8.724;2023-07-31T11:56:08;20.80;99.90
19892;DHT22;10108;50.142;8.724;2023-07-31T11:58:37;20.80;99.90
19892;DHT22;10108;50.142;8.724;2023-07-31T12:01:05;20.70;99.90
19892;DHT22;10108;50.142;8.724;2023-07-31T12:03:31;20.70;99.90
19892;DHT22;10108;50.142;8.724;2023-07-31T12:05:59;20.70;99.90
19892;DHT22;10108;50.142;8.724;2023-07-31T12:08:25;20.70;99.90
19892;DHT22;10108;50.142;8.724;2023-07-31T12:10:52;20.80;99.90
19892;DHT22;10108;50.142;8.724;2023-07-31T12:13:24;20.90;99.90
19892;DHT22;10108;50.142;8.724;2023-07-31T12:15:55;20.90;99.90
19892;DHT22;10108;50.142;8.724;2023-07-31T12:18:22;21.00;99.90
19892;DHT22;10108;50.142;8.724;2023-07-31T12:20:54;21.00;99.90
19892;DHT22;10108;50.142;8.724;2023-07-31T12:23:27;20.90;99.90
19892;DHT22;10108;50.142;8.724;2023-07-31T12:26:09;20.90;99.90
19892;DHT22;10108;50.142;8.724;2023-07-31T12:28:44;20.80;99.90
19892;DHT22;10108;50.142;8.724;2023-07-31T12:31:16;20.80;99.90
19892;DHT22;10108;50.142;8.724;2023-07-31T12:33:47;20.70;99.90
19892;DHT22;10108;50.142;8.724;2023-07-31T12:36:16;20.70;99.90
19892;DHT22;10108;50.142;8.724;2023-07-31T12:38:43;20.70;99.90
19892;DHT22;10108;50.142;8.724;2023-07-31T12:41:10;20.70;99.90
19892;DHT22;10108;50.142;8.724;2023-07-31T12:43:37;20.70;99.90
19892;DHT22;10108;50.142;8.724;2023-07-31T12:46:04;20.60;99.90
19892;DHT22;10108;50.142;8.724;2023-07-31T12:48:32;20.60;99.90
19892;DHT22;10108;50.142;8.724;2023-07-31T12:50:58;20.60;99.90
19892;DHT22;10108;50.142;8.724;2023-07-31T12:53:24;20.60;99.90
19892;DHT22;10108;50.142;8.724;2023-07-31T12:55:50;20.60;99.90
19892;DHT22;10108;50.142;8.724;2023-07-31T12:58:17;20.60;99.90
19892;DHT22;10108;50.142;8.724;2023-07-31T13:00:43;20.70;99.90
19892;DHT22;10108;50.142;8.724;2023-07-31T13:03:09;20.70;99.90
19892;DHT22;10108;50.142;8.724;2023-07-31T13:05:35;20.80;99.90
19892;DHT22;10108;50.142;8.724;2023-07-31T13:08:01;20.90;99.90
19892;DHT22;10108;50.142;8.724;2023-07-31T13:10:27;21.00;99.90
19892;DHT22;10108;50.142;8.724;2023-07-31T13:12:54;21.10;99.90
19892;DHT22;10108;50.142;8.724;2023-07-31T13:15:21;21.20;99.90
19892;DHT22;10108;50.142;8.724;2023-07-31T13:17:47;21.20;99.90
19892;DHT22;10108;50.142;8.724;2023-07-31T13:20:13;21.20;99.90
19892;DHT22;10108;50.142;8.724;2023-07-31T13:22:39;21.20;99.90
19892;DHT22;10108;50.142;8.724;2023-07-31T13:25:06;21.20;99.90
19892;DHT22;10108;50.142;8.724;2023-07-31T13:27:32;21.20;99.90
19892;DHT22;10108;50.142;8.724;2023-07-31T13:29:58;21.20;99.90
19892;DHT22;10108;50.142;8.724;2023-07-31T13:32:24;21.20;99.90
19892;DHT22;10108;50.142;8.724;2023-07-31T13:34:51;21.20;99.90
19892;DHT22;10108;50.142;8.724;2023-07-31T13:37:17;21.20;99.90
19892;DHT22;10108;50.142;8.724;2023-07-31T13:39:44;21.20;99.90
19892;DHT22;10108;50.142;8.724;2023-07-31T13:42:10;21.20;99.90
19892;DHT22;10108;50.142;8.724;2023-07-31T13:44:41;21.10;99.90
19892;DHT22;10108;50.142;8.724;2023-07-31T13:47:08;21.20;99.90
19892;DHT22;10108;50.142;8.724;2023-07-31T13:49:35;21.20;99.90
19892;DHT22;10108;50.142;8.724;2023-07-31T13:52:02;21.20;99.90
19892;DHT22;10108;50.142;8.724;2023-07-31T13:54:28;21.20;99.90
19892;DHT22;10108;50.142;8.724;2023-07-31T13:56:54;21.20;99.90
19892;DHT22;10108;50.142;8.724;2023-07-31T13:59:20;21.20;99.90
19892;DHT22;10108;50.142;8.724;2023-07-31T14:01:47;21.30;99.90
19892;DHT22;10108;50.142;8.724;2023-07-31T14:04:14;21.30;99.90
19892;DHT22;10108;50.142;8.724;2023-07-31T14:06:40;21.30;99.90
19892;DHT22;10108;50.142;8.724;2023-07-31T14:09:06;21.30;99.90
19892;DHT22;10108;50.142;8.724;2023-07-31T14:11:33;21.30;99.90
19892;DHT22;10108;50.142;8.724;2023-07-31T14:13:59;21.20;99.90
19892;DHT22;10108;50.142;8.724;2023-07-31T14:16:25;21.20;99.90
19892;DHT22;10108;50.142;8.724;2023-07-31T14:18:51;21.00;99.90
19892;DHT22;10108;50.142;8.724;2023-07-31T14:21:19;21.00;99.90
19892;DHT22;10108;50.142;8.724;2023-07-31T14:23:46;20.90;99.90
19892;DHT22;10108;50.142;8.724;2023-07-31T14:26:12;20.90;99.90
19892;DHT22;10108;50.142;8.724;2023-07-31T14:28:38;20.80;99.90
19892;DHT22;10108;50.142;8.724;2023-07-31T14:31:04;20.80;99.90
19892;DHT22;10108;50.142;8.724;2023-07-31T14:33:30;20.80;99.90
19892;DHT22;10108;50.142;8.724;2023-07-31T14:35:57;20.80;99.90
19892;DHT22;10108;50.142;8.724;2023-07-31T14:38:23;20.80;99.90
19892;DHT22;10108;50.142;8.724;2023-07-31T14:40:49;20.80;99.90
19892;DHT22;10108;50.142;8.724;2023-07-31T14:43:15;20.80;99.90
19892;DHT22;10108;50.142;8.724;2023-07-31T14:45:41;20.70;99.90
19892;DHT22;10108;50.142;8.724;2023-07-31T14:48:07;20.70;99.90
19892;DHT22;10108;50.142;8.724;2023-07-31T14:50:34;20.80;99.90
19892;DHT22;10108;50.142;8.724;2023-07-31T14:53:00;20.80;99.90
19892;DHT22;10108;50.142;8.724;2023-07-31T14:55:26;20.90;99.90
19892;DHT22;10108;50.142;8.724;2023-07-31T14:57:53;20.90;99.90
19892;DHT22;10108;50.142;8.724;2023-07-31T15:00:19;21.00;99.90
19892;DHT22;10108;50.142;8.724;2023-07-31T15:02:45;21.00;99.90
19892;DHT22;10108;50.142;8.724;2023-07-31T15:05:11;20.90;99.90
19892;DHT22;10108;50.142;8.724;2023-07-31T15:07:37;20.90;99.90
19892;DHT22;10108;50.142;8.724;2023-07-31T15:10:04;20.90;99.90
19892;DHT22;10108;50.142;8.724;2023-07-31T15:12:31;21.00;99.90
19892;DHT22;10108;50.142;8.724;2023-07-31T15:14:58;21.00;99.90
19892;DHT22;10108;50.142;8.724;2023-07-31T15:17:24;20.90;99.90
19892;DHT22;10108;50.142;8.724;2023-07-31T15:19:50;20.90;99.90
19892;DHT22;10108;50.142;8.724;2023-07-31T15:22:16;20.80;99.90
19892;DHT22;10108;50.142;8.724;2023-07-31T15:24:42;20.80;99.90
19892;DHT22;10108;50.142;8.724;2023-07-31T15:27:08;20.80;99.90
19892;DHT22;10108;50.142;8.724;2023-07-31T15:29:35;20.80;99.90
19892;DHT22;10108;50.142;8.724;2023-07-31T15:32:05;20.80;99.90
19892;DHT22;10108;50.142;8.724;2023-07-31T15:34:32;20.80;99.90
19892;DHT22;10108;50.142;8.724;2023-07-31T15:36:58;20.70;99.90
19892;DHT22;10108;50.142;8.724;2023-07-31T15:39:25;20.70;99.90